sensor_id;sensor_type;location;lat;lon;timestamp;temperature;humidity
82231;DHT22;71832;45.138;9.816;2024-03-23T00:54:21;11.70;82.00
82231;DHT22;71832;45.138;9.816;2024-03-23T00:56:50;11.70;82.30
82231;DHT22;71832;45.138;9.816;2024-03-23T00:59:19;11.50;82.50
82231;DHT22;71832;45.138;9.816;2024-03-23T01:01:49;11.50;82.60
82231;DHT22;71832;45.138;9.816;2024-03-23T01:04:18;11.40;82.50
82231;DHT22;71832;45.138;9.816;2024-03-23T01:06:46;11.40;83.20
82231;DHT22;71832;45.138;9.816;2024-03-23T01:09:14;11.40;83.60
82231;DHT22;71832;45.138;9.816;2024-03-23T01:11:42;11.40;83.10
82231;DHT22;71832;45.138;9.816;2024-03-23T01:14:11;11.40;82.70
82231;DHT22;71832;45.138;9.816;2024-03-23T01:16:39;11.40;82.60
82231;DHT22;71832;45.138;9.816;2024-03-23T01:19:07;11.30;82.90
82231;DHT22;71832;45.138;9.816;2024-03-23T01:21:36;11.20;82.40
82231;DHT22;71832;45.138;9.816;2024-03-23T01:24:05;11.10;79.60
82231;DHT22;71832;45.138;9.816;2024-03-23T01:26:36;11.00;80.10
82231;DHT22;71832;45.138;9.816;2024-03-23T01:29:04;10.90;81.00
82231;DHT22;71832;45.138;9.816;2024-03-23T01:31:32;10.80;82.50
82231;DHT22;71832;45.138;9.816;2024-03-23T01:34:01;10.70;83.10
82231;DHT22;71832;45.138;9.816;2024-03-23T01:36:30;10.60;81.50
82231;DHT22;71832;45.138;9.816;2024-03-23T01:38:58;10.60;83.00
82231;DHT22;71832;45.138;9.816;2024-03-23T01:41:27;10.60;83.80
82231;DHT22;71832;45.138;9.816;2024-03-23T01:43:55;10.50;83.70
82231;DHT22;71832;45.138;9.816;2024-03-23T01:46:23;10.50;83.50
82231;DHT22;71832;45.138;9.816;2024-03-23T01:48:51;10.40;83.50
82231;DHT22;71832;45.138;9.816;2024-03-23T01:51:20;10.30;84.60
82231;DHT22;71832;45.138;9.816;2024-03-23T01:53:49;10.30;85.50
82231;DHT22;71832;45.138;9.816;2024-03-23T01:56:18;10.20;86.10
82231;DHT22;71832;45.138;9.816;2024-03-23T01:58:47;10.20;87.50
82231;DHT22;71832;45.138;9.816;2024-03-23T02:01:15;10.30;87.20
82231;DHT22;71832;45.138;9.816;2024-03-23T02:03:43;10.30;87.80
82231;DHT22;71832;45.138;9.816;2024-03-23T02:06:12;10.40;88.70
82231;DHT22;71832;45.138;9.816;2024-03-23T02:08:41;10.40;88.90
82231;DHT22;71832;45.138;9.816;2024-03-23T02:11:09;10.50;88.40
82231;DHT22;71832;45.138;9.816;2024-03-23T02:13:37;10.60;88.30
82231;DHT22;71832;45.138;9.816;2024-03-23T02:16:06;10.60;87.20
82231;DHT22;71832;45.138;9.816;2024-03-23T02:18:34;10.60;86.20
82231;DHT22;71832;45.138;9.816;2024-03-23T02:21:03;10.60;86.70
82231;DHT22;71832;45.138;9.816;2024-03-23T02:23:32;10.70;87.50
82231;DHT22;71832;45.138;9.816;2024-03-23T02:26:01;10.70;87.80
82231;DHT22;71832;45.138;9.816;2024-03-23T02:28:29;10.60;88.10
82231;DHT22;71832;45.138;9.816;2024-03-23T02:30:58;10.60;87.80
82231;DHT22;71832;45.138;9.816;2024-03-23T02:33:27;10.60;87.70
82231;DHT22;71832;45.138;9.816;2024-03-23T02:35:57;10.50;88.40
82231;DHT22;71832;45.138;9.816;2024-03-23T02:38:25;10.50;89.20
82231;DHT22;71832;45.138;9.816;2024-03-23T02:40:53;10.50;89.10
82231;DHT22;71832;45.138;9.816;2024-03-23T02:43:22;10.60;88.60
82231;DHT22;71832;45.138;9.816;2024-03-23T02:45:51;10.70;87.80
82231;DHT22;71832;45.138;9.816;2024-03-23T02:48:19;10.70;87.20
82231;DHT22;71832;45.138;9.816;2024-03-23T02:50:47;10.70;87.20
82231;DHT22;71832;45.138;9.816;2024-03-23T02:53:16;10.70;86.00
82231;DHT22;71832;45.138;9.816;2024-03-23T02:55:44;10.60;86.60
82231;DHT22;71832;45.138;9.816;2024-03-23T02:58:12;10.70;86.90
82231;DHT22;71832;45.138;9.816;2024-03-23T03:00:40;10.70;86.70
82231;DHT22;71832;45.138;9.816;2024-03-23T03:03:08;10.80;86.50
82231;DHT22;71832;45.138;9.816;2024-03-23T03:05:36;10.80;85.40
82231;DHT22;71832;45.138;9.816;2024-03-23T03:08:04;10.80;84.60
82231;DHT22;71832;45.138;9.816;2024-03-23T03:10:33;10.70;84.40
82231;DHT22;71832;45.138;9.816;2024-03-23T03:13:03;10.60;83.80
82231;DHT22;71832;45.138;9.816;2024-03-23T03:15:32;10.50;83.50
82231;DHT22;71832;45.138;9.816;2024-03-23T03:18:00;10.40;83.00
82231;DHT22;71832;45.138;9.816;2024-03-23T03:20:29;10.30;82.80
82231;DHT22;71832;45.138;9.816;2024-03-23T03:22:59;10.20;83.00
82231;DHT22;71832;45.138;9.816;2024-03-23T03:25:27;10.10;83.30
82231;DHT22;71832;45.138;9.816;2024-03-23T03:27:55;10.00;84.30
82231;DHT22;71832;45.138;9.816;2024-03-23T03:30:24;10.00;84.80
82231;DHT22;71832;45.138;9.816;2024-03-23T03:32:54;10.00;85.60
82231;DHT22;71832;45.138;9.816;2024-03-23T03:35:23;10.00;86.20
82231;DHT22;71832;45.138;9.816;2024-03-23T03:37:51;9.90;86.10
82231;DHT22;71832;45.138;9.816;2024-03-23T03:40:19;9.80;86.00
82231;DHT22;71832;45.138;9.816;2024-03-23T03:42:47;9.70;85.90
82231;DHT22;71832;45.138;9.816;2024-03-23T03:45:15;9.60;85.70
82231;DHT22;71832;45.138;9.816;2024-03-23T03:47:44;9.60;86.90
82231;DHT22;71832;45.138;9.816;2024-03-23T03:50:12;9.70;88.40
82231;DHT22;71832;45.138;9.816;2024-03-23T03:52:40;9.70;88.40
82231;DHT22;71832;45.138;9.816;2024-03-23T03:55:13;9.70;88.20
82231;DHT22;71832;45.138;9.816;2024-03-23T03:57:42;9.70;87.90
82231;DHT22;71832;45.138;9.816;2024-03-23T04:00:11;9.70;87.50
82231;DHT22;71832;45.138;9.816;2024-03-23T04:02:40;9.70;87.00
82231;DHT22;71832;45.138;9.816;2024-03-23T04:05:08;9.70;87.10
82231;DHT22;71832;45.138;9.816;2024-03-23T04:07:36;9.60;87.70
82231;DHT22;71832;45.138;9.816;2024-03-23T04:10:04;9.50;86.90
82231;DHT22;71832;45.138;9.816;2024-03-23T04:12:35;9.50;85.70
82231;DHT22;71832;45.138;9.816;2024-03-23T04:15:04;9.40;85.50
82231;DHT22;71832;45.138;9.816;2024-03-23T04:17:32;9.40;86.10
82231;DHT22;71832;45.138;9.816;2024-03-23T04:20:02;9.40;86.30
82231;DHT22;71832;45.138;9.816;2024-03-23T04:22:32;9.30;86.70
82231;DHT22;71832;45.138;9.816;2024-03-23T04:25:01;9.20;88.20
82231;DHT22;71832;45.138;9.816;2024-03-23T04:27:33;9.20;88.50
82231;DHT22;71832;45.138;9.816;2024-03-23T04:30:02;9.40;88.70
82231;DHT22;71832;45.138;9.816;2024-03-23T04:32:31;9.40;88.90
82231;DHT22;71832;45.138;9.816;2024-03-23T04:35:00;9.40;89.50
82231;DHT22;71832;45.138;9.816;2024-03-23T04:37:29;9.40;90.30
82231;DHT22;71832;45.138;9.816;2024-03-23T04:39:57;9.50;90.30
82231;DHT22;71832;45.138;9.816;2024-03-23T04:42:25;9.50;90.80
82231;DHT22;71832;45.138;9.816;2024-03-23T04:44:53;9.60;90.90
82231;DHT22;71832;45.138;9.816;2024-03-23T04:47:21;9.70;89.70
82231;DHT22;71832;45.138;9.816;2024-03-23T04:49:50;9.70;89.00
82231;DHT22;71832;45.138;9.816;2024-03-23T04:52:19;9.70;87.90
82231;DHT22;71832;45.138;9.816;2024-03-23T04:54:47;9.70;87.50
82231;DHT22;71832;45.138;9.816;2024-03-23T04:57:16;9.60;86.20
82231;DHT22;71832;45.138;9.816;2024-03-23T04:59:44;9.60;85.40
82231;DHT22;71832;45.138;9.816;2024-03-23T05:02:14;9.50;85.70
82231;DHT22;71832;45.138;9.816;2024-03-23T05:04:43;9.50;85.30
82231;DHT22;71832;45.138;9.816;2024-03-23T05:07:11;9.40;85.80
82231;DHT22;71832;45.138;9.816;2024-03-23T05:09:39;9.40;86.70
82231;DHT22;71832;45.138;9.816;2024-03-23T05:12:08;9.40;87.30
82231;DHT22;71832;45.138;9.816;2024-03-23T05:14:37;9.40;87.60
82231;DHT22;71832;45.138;9.816;2024-03-23T05:17:05;9.40;88.20
82231;DHT22;71832;45.138;9.816;2024-03-23T05:19:33;9.40;88.60
82231;DHT22;71832;45.138;9.816;2024-03-23T05:22:02;9.50;88.60
82231;DHT22;71832;45.138;9.816;2024-03-23T05:24:30;9.50;88.60
82231;DHT22;71832;45.138;9.816;2024-03-23T05:26:59;9.50;88.50
82231;DHT22;71832;45.138;9.816;2024-03-23T05:29:28;9.50;88.80
82231;DHT22;71832;45.138;9.816;2024-03-23T05:31:57;9.50;88.80
82231;DHT22;71832;45.138;9.816;2024-03-23T05:34:25;9.50;88.80
82231;DHT22;71832;45.138;9.816;2024-03-23T05:36:52;9.50;89.00
82231;DHT22;71832;45.138;9.816;2024-03-23T05:39:20;9.50;88.60
82231;DHT22;71832;45.138;9.816;2024-03-23T05:41:49;9.50;88.30
82231;DHT22;71832;45.138;9.816;2024-03-23T05:44:17;9.40;88.60
82231;DHT22;71832;45.138;9.816;2024-03-23T05:46:46;9.50;89.10
82231;DHT22;71832;45.138;9.816;2024-03-23T05:49:16;9.50;89.90
82231;DHT22;71832;45.138;9.816;2024-03-23T05:51:44;9.50;90.30
82231;DHT22;71832;45.138;9.816;2024-03-23T05:54:12;9.40;90.40
82231;DHT22;71832;45.138;9.816;2024-03-23T05:56:40;9.40;91.00
82231;DHT22;71832;45.138;9.816;2024-03-23T05:59:08;9.50;92.00
82231;DHT22;71832;45.138;9.816;2024-03-23T06:01:37;9.50;92.00
82231;DHT22;71832;45.138;9.816;2024-03-23T06:04:05;9.50;92.70
82231;DHT22;71832;45.138;9.816;2024-03-23T06:06:33;9.60;93.20
82231;DHT22;71832;45.138;9.816;2024-03-23T06:09:01;9.70;93.00
82231;DHT22;71832;45.138;9.816;2024-03-23T06:11:29;9.80;92.70
82231;DHT22;71832;45.138;9.816;2024-03-23T06:13:57;9.80;92.20
82231;DHT22;71832;45.138;9.816;2024-03-23T06:16:26;9.90;91.60
82231;DHT22;71832;45.138;9.816;2024-03-23T06:18:55;9.80;91.30
82231;DHT22;71832;45.138;9.816;2024-03-23T06:21:24;9.90;91.50
82231;DHT22;71832;45.138;9.816;2024-03-23T06:23:52;10.00;91.70
82231;DHT22;71832;45.138;9.816;2024-03-23T06:26:21;10.00;91.60
82231;DHT22;71832;45.138;9.816;2024-03-23T06:28:49;10.10;91.80
82231;DHT22;71832;45.138;9.816;2024-03-23T06:31:17;10.20;91.90
82231;DHT22;71832;45.138;9.816;2024-03-23T06:33:44;10.20;91.80
82231;DHT22;71832;45.138;9.816;2024-03-23T06:36:12;10.30;92.20
82231;DHT22;71832;45.138;9.816;2024-03-23T06:38:43;10.40;91.20
82231;DHT22;71832;45.138;9.816;2024-03-23T06:41:12;10.50;91.50
82231;DHT22;71832;45.138;9.816;2024-03-23T06:43:39;10.50;91.70
82231;DHT22;71832;45.138;9.816;2024-03-23T06:46:07;10.60;91.50
82231;DHT22;71832;45.138;9.816;2024-03-23T06:48:34;10.70;91.70
82231;DHT22;71832;45.138;9.816;2024-03-23T06:51:02;10.80;91.90
82231;DHT22;71832;45.138;9.816;2024-03-23T06:53:30;10.80;92.00
82231;DHT22;71832;45.138;9.816;2024-03-23T06:55:58;10.90;92.00
82231;DHT22;71832;45.138;9.816;2024-03-23T06:58:27;11.00;91.90
82231;DHT22;71832;45.138;9.816;2024-03-23T07:00:55;11.10;91.80
82231;DHT22;71832;45.138;9.816;2024-03-23T07:03:24;11.10;92.50
82231;DHT22;71832;45.138;9.816;2024-03-23T07:05:53;11.20;92.30
82231;DHT22;71832;45.138;9.816;2024-03-23T07:08:26;11.30;92.20
82231;DHT22;71832;45.138;9.816;2024-03-23T07:10:54;11.30;92.00
82231;DHT22;71832;45.138;9.816;2024-03-23T07:13:23;11.40;91.80
82231;DHT22;71832;45.138;9.816;2024-03-23T07:15:53;11.50;92.40
82231;DHT22;71832;45.138;9.816;2024-03-23T07:18:23;11.50;91.70
82231;DHT22;71832;45.138;9.816;2024-03-23T07:20:55;11.60;91.10
82231;DHT22;71832;45.138;9.816;2024-03-23T07:23:25;11.70;91.10
82231;DHT22;71832;45.138;9.816;2024-03-23T07:26:12;11.70;91.70
82231;DHT22;71832;45.138;9.816;2024-03-23T07:28:41;11.90;91.40
82231;DHT22;71832;45.138;9.816;2024-03-23T07:31:12;11.90;90.60
82231;DHT22;71832;45.138;9.816;2024-03-23T07:33:50;12.00;90.20
82231;DHT22;71832;45.138;9.816;2024-03-23T07:36:17;12.10;89.60
82231;DHT22;71832;45.138;9.816;2024-03-23T07:38:45;12.20;89.30
82231;DHT22;71832;45.138;9.816;2024-03-23T07:41:17;12.30;89.40
82231;DHT22;71832;45.138;9.816;2024-03-23T07:43:46;12.40;90.00
82231;DHT22;71832;45.138;9.816;2024-03-23T07:46:16;12.50;90.40
82231;DHT22;71832;45.138;9.816;2024-03-23T07:48:45;12.50;90.30
82231;DHT22;71832;45.138;9.816;2024-03-23T07:51:18;12.50;90.40
82231;DHT22;71832;45.138;9.816;2024-03-23T07:53:47;12.60;90.30
82231;DHT22;71832;45.138;9.816;2024-03-23T07:56:17;12.70;90.90
82231;DHT22;71832;45.138;9.816;2024-03-23T07:58:46;12.80;90.70
82231;DHT22;71832;45.138;9.816;2024-03-23T08:01:15;12.80;91.00
82231;DHT22;71832;45.138;9.816;2024-03-23T08:03:45;12.80;90.80
82231;DHT22;71832;45.138;9.816;2024-03-23T08:06:15;12.90;91.30
82231;DHT22;71832;45.138;9.816;2024-03-23T08:08:45;13.00;91.40
82231;DHT22;71832;45.138;9.816;2024-03-23T08:11:14;13.00;90.50
82231;DHT22;71832;45.138;9.816;2024-03-23T08:13:44;13.10;90.60
82231;DHT22;71832;45.138;9.816;2024-03-23T08:16:13;13.10;89.80
82231;DHT22;71832;45.138;9.816;2024-03-23T08:18:41;13.20;90.20
82231;DHT22;71832;45.138;9.816;2024-03-23T08:21:09;13.30;90.00
82231;DHT22;71832;45.138;9.816;2024-03-23T08:23:38;13.30;90.10
82231;DHT22;71832;45.138;9.816;2024-03-23T08:26:08;13.30;89.80
82231;DHT22;71832;45.138;9.816;2024-03-23T08:28:37;13.40;87.40
82231;DHT22;71832;45.138;9.816;2024-03-23T08:31:07;13.50;88.60
82231;DHT22;71832;45.138;9.816;2024-03-23T08:33:36;13.60;89.40
82231;DHT22;71832;45.138;9.816;2024-03-23T08:36:07;13.70;87.50
82231;DHT22;71832;45.138;9.816;2024-03-23T08:38:36;13.90;87.30
82231;DHT22;71832;45.138;9.816;2024-03-23T08:41:06;13.90;87.30
82231;DHT22;71832;45.138;9.816;2024-03-23T08:43:37;14.00;86.60
82231;DHT22;71832;45.138;9.816;2024-03-23T08:48:38;14.20;87.30
82231;DHT22;71832;45.138;9.816;2024-03-23T08:51:09;14.30;85.40
82231;DHT22;71832;45.138;9.816;2024-03-23T08:53:38;14.40;79.80
82231;DHT22;71832;45.138;9.816;2024-03-23T08:56:07;14.40;79.00
82231;DHT22;71832;45.138;9.816;2024-03-23T08:58:37;14.50;80.00
82231;DHT22;71832;45.138;9.816;2024-03-23T09:01:15;14.50;79.90
82231;DHT22;71832;45.138;9.816;2024-03-23T09:03:43;14.60;82.00
82231;DHT22;71832;45.138;9.816;2024-03-23T09:06:13;14.60;78.30
82231;DHT22;71832;45.138;9.816;2024-03-23T09:08:42;14.70;78.70
82231;DHT22;71832;45.138;9.816;2024-03-23T09:11:12;14.80;78.10
82231;DHT22;71832;45.138;9.816;2024-03-23T09:13:41;14.90;78.60
82231;DHT22;71832;45.138;9.816;2024-03-23T09:16:10;15.00;76.50
82231;DHT22;71832;45.138;9.816;2024-03-23T09:18:39;15.00;74.70
82231;DHT22;71832;45.138;9.816;2024-03-23T09:21:12;15.00;74.60
82231;DHT22;71832;45.138;9.816;2024-03-23T09:23:44;15.00;77.20
82231;DHT22;71832;45.138;9.816;2024-03-23T09:26:12;15.20;77.10
82231;DHT22;71832;45.138;9.816;2024-03-23T09:28:41;15.20;76.00
82231;DHT22;71832;45.138;9.816;2024-03-23T09:31:10;15.30;75.10
82231;DHT22;71832;45.138;9.816;2024-03-23T09:33:41;15.30;78.00
82231;DHT22;71832;45.138;9.816;2024-03-23T09:36:10;15.40;75.70
82231;DHT22;71832;45.138;9.816;2024-03-23T09:38:40;15.50;77.40
82231;DHT22;71832;45.138;9.816;2024-03-23T09:41:09;15.60;76.10
82231;DHT22;71832;45.138;9.816;2024-03-23T09:43:38;15.60;74.60
82231;DHT22;71832;45.138;9.816;2024-03-23T09:46:07;15.70;73.30
82231;DHT22;71832;45.138;9.816;2024-03-23T09:48:37;15.80;74.40
82231;DHT22;71832;45.138;9.816;2024-03-23T09:51:05;15.80;74.60
82231;DHT22;71832;45.138;9.816;2024-03-23T09:53:36;15.90;75.70
82231;DHT22;71832;45.138;9.816;2024-03-23T09:56:06;16.00;74.20
82231;DHT22;71832;45.138;9.816;2024-03-23T09:58:36;16.00;74.00
82231;DHT22;71832;45.138;9.816;2024-03-23T10:01:05;16.10;74.00
82231;DHT22;71832;45.138;9.816;2024-03-23T10:03:43;16.10;72.10
82231;DHT22;71832;45.138;9.816;2024-03-23T10:06:12;16.20;72.80
82231;DHT22;71832;45.138;9.816;2024-03-23T10:08:39;16.20;71.90
82231;DHT22;71832;45.138;9.816;2024-03-23T10:11:17;16.30;73.00
82231;DHT22;71832;45.138;9.816;2024-03-23T10:13:45;16.40;70.10
82231;DHT22;71832;45.138;9.816;2024-03-23T10:16:22;16.40;71.00
82231;DHT22;71832;45.138;9.816;2024-03-23T10:18:50;16.40;72.10
82231;DHT22;71832;45.138;9.816;2024-03-23T10:21:18;16.50;73.80
82231;DHT22;71832;45.138;9.816;2024-03-23T10:23:47;16.50;72.70
82231;DHT22;71832;45.138;9.816;2024-03-23T10:26:18;16.50;70.80
82231;DHT22;71832;45.138;9.816;2024-03-23T10:29:08;16.60;70.90
82231;DHT22;71832;45.138;9.816;2024-03-23T10:31:36;16.70;70.30
82231;DHT22;71832;45.138;9.816;2024-03-23T10:34:07;16.70;71.30
82231;DHT22;71832;45.138;9.816;2024-03-23T10:36:39;16.80;70.20
82231;DHT22;71832;45.138;9.816;2024-03-23T10:39:08;16.80;69.90
82231;DHT22;71832;45.138;9.816;2024-03-23T10:41:37;16.80;69.50
82231;DHT22;71832;45.138;9.816;2024-03-23T10:44:07;16.90;69.60
82231;DHT22;71832;45.138;9.816;2024-03-23T10:46:35;17.00;68.40
82231;DHT22;71832;45.138;9.816;2024-03-23T10:49:04;17.00;69.40
82231;DHT22;71832;45.138;9.816;2024-03-23T10:51:33;17.00;68.70
82231;DHT22;71832;45.138;9.816;2024-03-23T10:54:04;17.10;69.30
82231;DHT22;71832;45.138;9.816;2024-03-23T10:56:35;17.20;67.90
82231;DHT22;71832;45.138;9.816;2024-03-23T10:59:05;17.20;66.80
82231;DHT22;71832;45.138;9.816;2024-03-23T11:01:34;17.20;67.80
82231;DHT22;71832;45.138;9.816;2024-03-23T11:04:01;17.20;67.50
82231;DHT22;71832;45.138;9.816;2024-03-23T11:06:40;17.20;67.20
82231;DHT22;71832;45.138;9.816;2024-03-23T11:09:46;17.30;66.90
82231;DHT22;71832;45.138;9.816;2024-03-23T11:12:27;17.40;66.10
82231;DHT22;71832;45.138;9.816;2024-03-23T11:17:29;17.40;64.80
82231;DHT22;71832;45.138;9.816;2024-03-23T11:22:45;17.50;65.60
82231;DHT22;71832;45.138;9.816;2024-03-23T11:27:48;17.60;65.80
82231;DHT22;71832;45.138;9.816;2024-03-23T11:30:27;17.60;65.90
82231;DHT22;71832;45.138;9.816;2024-03-23T11:32:57;17.70;66.40
82231;DHT22;71832;45.138;9.816;2024-03-23T11:35:34;17.70;66.40
82231;DHT22;71832;45.138;9.816;2024-03-23T11:40:36;17.80;66.50
82231;DHT22;71832;45.138;9.816;2024-03-23T11:43:06;17.90;66.80
82231;DHT22;71832;45.138;9.816;2024-03-23T11:45:42;18.00;66.20
82231;DHT22;71832;45.138;9.816;2024-03-23T11:48:12;18.00;66.90
82231;DHT22;71832;45.138;9.816;2024-03-23T11:50:43;18.00;63.90
82231;DHT22;71832;45.138;9.816;2024-03-23T11:53:13;18.00;64.30
82231;DHT22;71832;45.138;9.816;2024-03-23T11:56:04;18.00;63.70
82231;DHT22;71832;45.138;9.816;2024-03-23T11:58:31;18.10;65.50
82231;DHT22;71832;45.138;9.816;2024-03-23T12:01:01;18.10;64.80
82231;DHT22;71832;45.138;9.816;2024-03-23T12:03:30;18.20;65.40
82231;DHT22;71832;45.138;9.816;2024-03-23T12:06:01;18.20;65.20
82231;DHT22;71832;45.138;9.816;2024-03-23T12:11:13;18.30;63.80
82231;DHT22;71832;45.138;9.816;2024-03-23T12:13:43;18.30;63.00
82231;DHT22;71832;45.138;9.816;2024-03-23T12:16:18;18.30;62.50
82231;DHT22;71832;45.138;9.816;2024-03-23T12:18:48;18.30;63.00
82231;DHT22;71832;45.138;9.816;2024-03-23T12:21:18;18.30;63.60
82231;DHT22;71832;45.138;9.816;2024-03-23T12:23:47;18.30;63.20
82231;DHT22;71832;45.138;9.816;2024-03-23T12:26:17;18.30;62.50
82231;DHT22;71832;45.138;9.816;2024-03-23T12:28:46;18.30;62.60
82231;DHT22;71832;45.138;9.816;2024-03-23T12:31:15;18.40;62.30
82231;DHT22;71832;45.138;9.816;2024-03-23T12:33:44;18.40;63.90
82231;DHT22;71832;45.138;9.816;2024-03-23T12:36:13;18.40;64.40
82231;DHT22;71832;45.138;9.816;2024-03-23T12:38:42;18.50;64.00
82231;DHT22;71832;45.138;9.816;2024-03-23T12:41:11;18.50;65.00
82231;DHT22;71832;45.138;9.816;2024-03-23T12:43:40;18.60;63.40
82231;DHT22;71832;45.138;9.816;2024-03-23T12:46:09;18.60;63.90
82231;DHT22;71832;45.138;9.816;2024-03-23T12:48:39;18.70;64.90
82231;DHT22;71832;45.138;9.816;2024-03-23T12:51:08;18.70;61.50
82231;DHT22;71832;45.138;9.816;2024-03-23T12:53:37;18.70;61.50
82231;DHT22;71832;45.138;9.816;2024-03-23T12:56:06;18.70;63.00
82231;DHT22;71832;45.138;9.816;2024-03-23T12:58:35;18.70;65.40
82231;DHT22;71832;45.138;9.816;2024-03-23T13:01:03;18.80;65.30
82231;DHT22;71832;45.138;9.816;2024-03-23T13:03:33;18.80;62.20
82231;DHT22;71832;45.138;9.816;2024-03-23T13:06:02;18.80;61.10
82231;DHT22;71832;45.138;9.816;2024-03-23T13:08:34;18.80;60.70
82231;DHT22;71832;45.138;9.816;2024-03-23T13:11:03;18.80;60.70
82231;DHT22;71832;45.138;9.816;2024-03-23T13:13:32;18.80;61.50
82231;DHT22;71832;45.138;9.816;2024-03-23T13:16:01;18.80;61.90
82231;DHT22;71832;45.138;9.816;2024-03-23T13:18:30;18.80;62.70
82231;DHT22;71832;45.138;9.816;2024-03-23T13:20:59;18.90;61.90
82231;DHT22;71832;45.138;9.816;2024-03-23T13:23:27;18.90;60.70
82231;DHT22;71832;45.138;9.816;2024-03-23T13:25:57;18.90;61.00
82231;DHT22;71832;45.138;9.816;2024-03-23T13:28:26;18.80;60.90
82231;DHT22;71832;45.138;9.816;2024-03-23T13:30:56;18.80;64.40
82231;DHT22;71832;45.138;9.816;2024-03-23T13:33:26;18.80;63.30
82231;DHT22;71832;45.138;9.816;2024-03-23T13:35:55;18.90;63.20
82231;DHT22;71832;45.138;9.816;2024-03-23T13:38:23;18.90;62.80
82231;DHT22;71832;45.138;9.816;2024-03-23T13:40:53;18.90;62.40
82231;DHT22;71832;45.138;9.816;2024-03-23T13:43:23;18.90;62.60
82231;DHT22;71832;45.138;9.816;2024-03-23T13:45:56;18.90;63.70
82231;DHT22;71832;45.138;9.816;2024-03-23T13:48:25;18.90;62.60
82231;DHT22;71832;45.138;9.816;2024-03-23T13:51:03;18.90;64.20
82231;DHT22;71832;45.138;9.816;2024-03-23T13:53:31;18.90;61.70
82231;DHT22;71832;45.138;9.816;2024-03-23T13:56:00;18.80;64.10
82231;DHT22;71832;45.138;9.816;2024-03-23T13:58:29;18.80;63.10
82231;DHT22;71832;45.138;9.816;2024-03-23T14:00:58;18.80;63.90
82231;DHT22;71832;45.138;9.816;2024-03-23T14:03:27;18.90;63.00
82231;DHT22;71832;45.138;9.816;2024-03-23T14:05:58;19.00;62.70
82231;DHT22;71832;45.138;9.816;2024-03-23T14:08:28;19.00;63.50
82231;DHT22;71832;45.138;9.816;2024-03-23T14:10:58;19.00;62.20
82231;DHT22;71832;45.138;9.816;2024-03-23T14:13:27;19.00;61.90
82231;DHT22;71832;45.138;9.816;2024-03-23T14:15:54;19.00;61.40
82231;DHT22;71832;45.138;9.816;2024-03-23T14:18:22;19.00;61.60
82231;DHT22;71832;45.138;9.816;2024-03-23T14:20:51;19.00;61.10
82231;DHT22;71832;45.138;9.816;2024-03-23T14:23:19;19.00;62.10
82231;DHT22;71832;45.138;9.816;2024-03-23T14:25:48;19.00;64.90
82231;DHT22;71832;45.138;9.816;2024-03-23T14:28:16;19.00;65.20
82231;DHT22;71832;45.138;9.816;2024-03-23T14:30:45;19.00;65.60
82231;DHT22;71832;45.138;9.816;2024-03-23T14:33:14;19.00;64.40
82231;DHT22;71832;45.138;9.816;2024-03-23T14:35:42;19.00;63.50
82231;DHT22;71832;45.138;9.816;2024-03-23T14:38:10;19.10;63.30
82231;DHT22;71832;45.138;9.816;2024-03-23T14:40:39;19.10;62.90
82231;DHT22;71832;45.138;9.816;2024-03-23T14:43:07;19.00;63.70
82231;DHT22;71832;45.138;9.816;2024-03-23T14:45:35;19.10;63.50
82231;DHT22;71832;45.138;9.816;2024-03-23T14:48:03;19.10;62.60
82231;DHT22;71832;45.138;9.816;2024-03-23T14:50:31;19.10;63.20
82231;DHT22;71832;45.138;9.816;2024-03-23T14:52:58;19.10;65.30
82231;DHT22;71832;45.138;9.816;2024-03-23T14:55:27;19.10;62.60
82231;DHT22;71832;45.138;9.816;2024-03-23T14:57:55;19.10;64.20
82231;DHT22;71832;45.138;9.816;2024-03-23T15:00:22;19.10;64.60
82231;DHT22;71832;45.138;9.816;2024-03-23T15:02:50;19.00;65.40
82231;DHT22;71832;45.138;9.816;2024-03-23T15:05:19;19.00;64.10
82231;DHT22;71832;45.138;9.816;2024-03-23T15:07:48;19.00;65.90
82231;DHT22;71832;45.138;9.816;2024-03-23T15:10:16;19.00;64.80
82231;DHT22;71832;45.138;9.816;2024-03-23T15:12:45;19.00;66.70
82231;DHT22;71832;45.138;9.816;2024-03-23T15:15:14;19.00;66.30
82231;DHT22;71832;45.138;9.816;2024-03-23T15:17:42;19.00;67.10
82231;DHT22;71832;45.138;9.816;2024-03-23T15:20:12;19.00;65.90
82231;DHT22;71832;45.138;9.816;2024-03-23T15:22:40;19.00;65.70
82231;DHT22;71832;45.138;9.816;2024-03-23T15:25:09;19.00;66.90
82231;DHT22;71832;45.138;9.816;2024-03-23T15:27:37;19.00;66.10
82231;DHT22;71832;45.138;9.816;2024-03-23T15:30:06;19.00;66.10
82231;DHT22;71832;45.138;9.816;2024-03-23T15:32:35;19.00;66.00
82231;DHT22;71832;45.138;9.816;2024-03-23T15:35:05;19.00;67.80
82231;DHT22;71832;45.138;9.816;2024-03-23T15:37:34;19.00;65.00
82231;DHT22;71832;45.138;9.816;2024-03-23T15:40:02;19.00;65.10
82231;DHT22;71832;45.138;9.816;2024-03-23T15:42:30;19.00;65.10
82231;DHT22;71832;45.138;9.816;2024-03-23T15:44:59;19.00;65.00
82231;DHT22;71832;45.138;9.816;2024-03-23T15:47:27;19.00;66.10
82231;DHT22;71832;45.138;9.816;2024-03-23T15:49:56;19.00;64.80
82231;DHT22;71832;45.138;9.816;2024-03-23T15:52:25;18.90;65.50
82231;DHT22;71832;45.138;9.816;2024-03-23T15:54:53;19.00;64.20
82231;DHT22;71832;45.138;9.816;2024-03-23T15:57:23;19.00;64.00
82231;DHT22;71832;45.138;9.816;2024-03-23T15:59:52;19.00;63.30
82231;DHT22;71832;45.138;9.816;2024-03-23T16:02:21;18.90;61.70
82231;DHT22;71832;45.138;9.816;2024-03-23T16:04:49;19.00;62.80
82231;DHT22;71832;45.138;9.816;2024-03-23T16:07:18;18.90;62.50
82231;DHT22;71832;45.138;9.816;2024-03-23T16:09:46;18.90;64.20
82231;DHT22;71832;45.138;9.816;2024-03-23T16:12:14;18.80;64.10
82231;DHT22;71832;45.138;9.816;2024-03-23T16:14:42;18.70;63.60
82231;DHT22;71832;45.138;9.816;2024-03-23T16:17:11;18.70;63.40
82231;DHT22;71832;45.138;9.816;2024-03-23T16:19:39;18.70;64.30
82231;DHT22;71832;45.138;9.816;2024-03-23T16:22:08;18.70;63.70
82231;DHT22;71832;45.138;9.816;2024-03-23T16:24:37;18.80;63.30
82231;DHT22;71832;45.138;9.816;2024-03-23T16:27:06;18.80;63.30
82231;DHT22;71832;45.138;9.816;2024-03-23T16:29:34;18.90;62.00
82231;DHT22;71832;45.138;9.816;2024-03-23T16:32:03;18.90;63.40
82231;DHT22;71832;45.138;9.816;2024-03-23T16:34:32;18.90;62.10
82231;DHT22;71832;45.138;9.816;2024-03-23T16:37:01;19.00;62.70
82231;DHT22;71832;45.138;9.816;2024-03-23T16:39:30;19.10;62.30
82231;DHT22;71832;45.138;9.816;2024-03-23T16:41:59;19.20;60.80
82231;DHT22;71832;45.138;9.816;2024-03-23T16:44:27;19.20;62.10
82231;DHT22;71832;45.138;9.816;2024-03-23T16:46:56;19.80;60.50
82231;DHT22;71832;45.138;9.816;2024-03-23T16:49:25;20.20;60.30
82231;DHT22;71832;45.138;9.816;2024-03-23T16:51:53;20.00;60.10
82231;DHT22;71832;45.138;9.816;2024-03-23T16:54:22;19.90;60.70